createdAt,value
2017-02-17T00:00:00.881Z,74065
2017-02-17T00:00:11.487Z,74065
2017-02-17T00:00:21.324Z,74063
2017-02-17T00:00:31.917Z,74061
2017-02-17T00:00:42.498Z,74065
2017-02-17T00:00:53.044Z,74065
2017-02-17T00:01:03.618Z,74060
2017-02-17T00:01:13.793Z,74064
2017-02-17T00:01:24.340Z,74061
2017-02-17T00:01:34.895Z,74065
2017-02-17T00:01:45.096Z,74065
2017-02-17T00:01:55.660Z,74071
2017-02-17T00:02:06.242Z,74066
2017-02-17T00:02:16.466Z,74062
2017-02-17T00:02:26.701Z,74056
2017-02-17T00:02:37.273Z,74064
2017-02-17T00:02:47.837Z,74056
2017-02-17T00:02:58.385Z,74059
2017-02-17T00:03:08.949Z,74060
2017-02-17T00:03:19.496Z,74061
2017-02-17T00:03:30.091Z,74062
2017-02-17T00:03:40.636Z,74061
2017-02-17T00:03:50.820Z,74054
2017-02-17T00:04:01.367Z,74058
2017-02-17T00:04:11.900Z,74060
2017-02-17T00:04:22.083Z,74064
2017-02-17T00:04:32.686Z,74058
2017-02-17T00:04:43.265Z,74061
2017-02-17T00:04:53.836Z,74059
2017-02-17T00:05:04.442Z,74069
2017-02-17T00:05:14.628Z,74061
2017-02-17T00:05:25.214Z,74053
2017-02-17T00:05:35.750Z,74057
2017-02-17T00:05:46.318Z,74051
2017-02-17T00:05:56.892Z,74056
2017-02-17T00:06:07.433Z,74062
2017-02-17T00:06:17.259Z,74055
2017-02-17T00:06:27.826Z,74051
2017-02-17T00:06:38.034Z,74048
2017-02-17T00:06:48.595Z,74054
2017-02-17T00:06:59.172Z,74054
2017-02-17T00:07:09.706Z,74053
2017-02-17T00:07:19.152Z,74064
2017-02-17T00:07:29.732Z,74053
2017-02-17T00:07:40.334Z,74058
2017-02-17T00:07:50.905Z,74053
2017-02-17T00:08:01.577Z,74054
2017-02-17T00:08:12.164Z,74048
2017-02-17T00:08:21.978Z,74050
2017-02-17T00:08:32.512Z,74047
2017-02-17T00:08:43.090Z,74047
2017-02-17T00:08:53.647Z,74054
2017-02-17T00:09:04.269Z,74050
2017-02-17T00:09:14.824Z,74053
2017-02-17T00:09:25.390Z,74050
2017-02-17T00:09:35.973Z,74050
2017-02-17T00:09:46.503Z,74051
2017-02-17T00:09:57.080Z,74049
2017-02-17T00:10:07.666Z,74049
2017-02-17T00:10:16.717Z,74050
2017-02-17T00:10:27.302Z,74045
2017-02-17T00:10:37.523Z,74045
2017-02-17T00:10:48.111Z,74045
2017-02-17T00:10:58.698Z,74048
2017-02-17T00:11:09.264Z,74045
2017-02-17T00:11:19.863Z,74045
2017-02-17T00:11:30.396Z,74045
2017-02-17T00:11:40.968Z,74051
2017-02-17T00:11:51.557Z,74053
2017-02-17T00:12:02.159Z,74044
2017-02-17T00:12:12.341Z,74040
2017-02-17T00:12:22.506Z,74050
2017-02-17T00:12:33.029Z,74053
2017-02-17T00:12:43.587Z,74045
2017-02-17T00:12:54.125Z,74045
2017-02-17T00:13:04.660Z,74048
2017-02-17T00:13:15.238Z,74055
2017-02-17T00:13:25.803Z,74051
2017-02-17T00:13:36.376Z,74048
2017-02-17T00:13:46.955Z,74049
2017-02-17T00:13:57.548Z,74054
2017-02-17T00:14:08.106Z,74052
2017-02-17T00:14:18.723Z,74049
2017-02-17T00:14:28.547Z,74039
2017-02-17T00:14:39.106Z,74047
2017-02-17T00:14:49.638Z,74047
2017-02-17T00:14:59.823Z,74045
2017-02-17T00:15:10.362Z,74049
2017-02-17T00:15:20.934Z,74037
2017-02-17T00:15:31.519Z,74038
2017-02-17T00:15:42.109Z,74048
2017-02-17T00:15:52.297Z,74047
2017-02-17T00:16:02.487Z,74045
2017-02-17T00:16:12.309Z,74047
2017-02-17T00:16:22.515Z,74055
2017-02-17T00:16:33.092Z,74057
2017-02-17T00:16:43.649Z,74055
2017-02-17T00:16:54.229Z,74054
2017-02-17T00:17:04.828Z,74044
2017-02-17T00:17:15.026Z,74042
2017-02-17T00:17:25.666Z,74042
2017-02-17T00:17:36.305Z,74037
2017-02-17T00:17:46.858Z,74026
2017-02-17T00:17:57.457Z,74034
2017-02-17T00:18:07.644Z,74038
2017-02-17T00:18:17.463Z,74040
2017-02-17T00:18:27.633Z,74039
2017-02-17T00:18:38.266Z,74042
2017-02-17T00:18:48.881Z,74047
2017-02-17T00:18:59.458Z,74047
2017-02-17T00:19:10.044Z,74046
2017-02-17T00:19:20.681Z,74046
2017-02-17T00:19:30.948Z,74038
2017-02-17T00:19:41.513Z,74040
2017-02-17T00:19:52.102Z,74034
2017-02-17T00:20:02.703Z,74042
2017-02-17T00:20:13.316Z,74038
2017-02-17T00:20:23.929Z,74036
2017-02-17T00:20:34.498Z,74038
2017-02-17T00:20:45.121Z,74029
2017-02-17T00:20:55.702Z,74027
2017-02-17T00:21:06.336Z,74037
2017-02-17T00:21:17.015Z,74027
2017-02-17T00:21:27.633Z,74025
2017-02-17T00:21:38.213Z,74040
2017-02-17T00:21:48.725Z,74037
2017-02-17T00:21:59.392Z,74031
2017-02-17T00:22:09.986Z,74035
2017-02-17T00:22:20.207Z,74038
2017-02-17T00:22:30.777Z,74037
2017-02-17T00:22:41.365Z,74050
2017-02-17T00:22:51.883Z,74053
2017-02-17T00:23:02.087Z,74055
2017-02-17T00:23:12.315Z,74042
2017-02-17T00:23:22.154Z,74037
2017-02-17T00:23:32.755Z,74041
2017-02-17T00:23:43.330Z,74035
2017-02-17T00:23:53.553Z,74032
2017-02-17T00:24:04.167Z,74034
2017-02-17T00:24:14.336Z,74035
2017-02-17T00:24:24.957Z,74040
2017-02-17T00:24:35.177Z,74039
2017-02-17T00:24:45.743Z,74043
2017-02-17T00:24:56.297Z,74043
2017-02-17T00:25:06.890Z,74041
2017-02-17T00:25:17.455Z,74039
2017-02-17T00:25:28.023Z,74040
2017-02-17T00:25:38.612Z,74037
2017-02-17T00:25:49.193Z,74038
2017-02-17T00:25:59.797Z,74039
2017-02-17T00:26:10.348Z,74043
2017-02-17T00:26:20.913Z,74040
2017-02-17T00:26:31.498Z,74044
2017-02-17T00:26:42.056Z,74045
2017-02-17T00:26:52.331Z,74046
2017-02-17T00:27:02.921Z,74049
2017-02-17T00:27:12.759Z,74047
2017-02-17T00:27:23.339Z,74052
2017-02-17T00:27:33.882Z,74043
2017-02-17T00:27:44.451Z,74039
2017-02-17T00:27:55.023Z,74035
2017-02-17T00:28:05.596Z,74036
2017-02-17T00:28:15.813Z,74039
2017-02-17T00:28:25.977Z,74032
2017-02-17T00:28:36.588Z,74043
2017-02-17T00:28:47.175Z,74035
2017-02-17T00:28:57.758Z,74040
2017-02-17T00:29:07.970Z,74035
2017-02-17T00:29:18.150Z,74039
2017-02-17T00:29:28.748Z,74038
2017-02-17T00:29:39.323Z,74025
2017-02-17T00:29:49.912Z,74028
2017-02-17T00:30:00.465Z,74036
2017-02-17T00:30:10.323Z,74041
2017-02-17T00:30:20.209Z,74040
2017-02-17T00:30:30.769Z,74039
2017-02-17T00:30:40.976Z,74046
2017-02-17T00:30:51.553Z,74039
2017-02-17T00:31:02.088Z,74050
2017-02-17T00:31:12.681Z,74052
2017-02-17T00:31:23.281Z,74050
2017-02-17T00:31:33.868Z,74041
2017-02-17T00:31:44.446Z,74043
2017-02-17T00:31:55.032Z,74046
2017-02-17T00:32:05.624Z,74044
2017-02-17T00:32:16.234Z,74038
2017-02-17T00:32:26.413Z,74038
2017-02-17T00:32:36.973Z,74037
2017-02-17T00:32:47.166Z,74040
2017-02-17T00:32:57.740Z,74032
2017-02-17T00:33:08.315Z,74038
2017-02-17T00:33:18.488Z,74038
2017-02-17T00:33:29.062Z,74022
2017-02-17T00:33:39.665Z,74021
2017-02-17T00:33:50.228Z,74027
2017-02-17T00:34:00.848Z,74037
2017-02-17T00:34:11.427Z,74034
2017-02-17T00:34:21.217Z,74027
2017-02-17T00:34:31.786Z,74030
2017-02-17T00:34:42.396Z,74030
2017-02-17T00:34:52.631Z,74030
2017-02-17T00:35:02.835Z,74032
2017-02-17T00:35:13.366Z,74027
2017-02-17T00:35:23.912Z,74023
2017-02-17T00:35:34.484Z,74031
2017-02-17T00:35:45.040Z,74042
2017-02-17T00:35:55.619Z,74051
2017-02-17T00:36:06.199Z,74044
2017-02-17T00:36:16.395Z,74037
2017-02-17T00:36:26.981Z,74033
2017-02-17T00:36:37.565Z,74036
2017-02-17T00:36:48.127Z,74036
2017-02-17T00:36:58.695Z,74043
2017-02-17T00:37:09.254Z,74047
2017-02-17T00:37:19.808Z,74045
2017-02-17T00:37:29.628Z,74041
2017-02-17T00:37:40.228Z,74042
2017-02-17T00:37:50.775Z,74045
2017-02-17T00:38:01.353Z,74042
2017-02-17T00:38:11.958Z,74038
2017-02-17T00:38:22.186Z,74040
2017-02-17T00:38:32.719Z,74037
2017-02-17T00:38:43.280Z,74043
2017-02-17T00:38:53.909Z,74038
2017-02-17T00:39:04.185Z,74040
2017-02-17T00:39:14.786Z,74039
2017-02-17T00:39:25.367Z,74038
2017-02-17T00:39:35.562Z,74030
2017-02-17T00:39:46.141Z,74032
2017-02-17T00:39:56.741Z,74027
2017-02-17T00:40:07.277Z,74033
2017-02-17T00:40:17.485Z,74041
2017-02-17T00:40:28.049Z,74047
2017-02-17T00:40:38.609Z,74040
2017-02-17T00:40:49.165Z,74040
2017-02-17T00:40:59.764Z,74044
2017-02-17T00:41:10.388Z,74038
2017-02-17T00:41:20.912Z,74042
2017-02-17T00:41:31.495Z,74038
2017-02-17T00:41:42.045Z,74034
2017-02-17T00:41:52.620Z,74039
2017-02-17T00:42:02.785Z,74044
2017-02-17T00:42:12.263Z,74034
2017-02-17T00:42:22.451Z,74037
2017-02-17T00:42:33.020Z,74033
2017-02-17T00:42:43.644Z,74042
2017-02-17T00:42:54.229Z,74038
2017-02-17T00:43:04.803Z,74043
2017-02-17T00:43:15.422Z,74040
2017-02-17T00:43:25.605Z,74043
2017-02-17T00:43:36.133Z,74038
2017-02-17T00:43:46.316Z,74039
2017-02-17T00:43:56.879Z,74040
2017-02-17T00:44:07.065Z,74035
2017-02-17T00:44:17.659Z,74032
2017-02-17T00:44:28.198Z,74034
2017-02-17T00:44:38.799Z,74021
2017-02-17T00:44:48.989Z,74033
2017-02-17T00:44:59.180Z,74042
2017-02-17T00:45:09.720Z,74047
2017-02-17T00:45:19.948Z,74043
2017-02-17T00:45:30.529Z,74035
2017-02-17T00:45:41.159Z,74032
2017-02-17T00:45:51.705Z,74041
2017-02-17T00:46:01.892Z,74041
2017-02-17T00:46:12.463Z,74037
2017-02-17T00:46:22.996Z,74042
2017-02-17T00:46:33.529Z,74036
2017-02-17T00:46:44.085Z,74032
2017-02-17T00:46:54.668Z,74039
2017-02-17T00:47:05.230Z,74040
2017-02-17T00:47:15.433Z,74047
2017-02-17T00:47:25.600Z,74043
2017-02-17T00:47:36.167Z,74043
2017-02-17T00:47:46.769Z,74045
2017-02-17T00:47:56.961Z,74042
2017-02-17T00:48:07.506Z,74039
2017-02-17T00:48:18.050Z,74035
2017-02-17T00:48:28.642Z,74037
2017-02-17T00:48:39.178Z,74032
2017-02-17T00:48:49.742Z,74037
2017-02-17T00:49:00.305Z,74035
2017-02-17T00:49:10.146Z,74038
2017-02-17T00:49:19.984Z,74040
2017-02-17T00:49:30.570Z,74037
2017-02-17T00:49:41.149Z,74039
2017-02-17T00:49:51.744Z,74036
2017-02-17T00:50:02.300Z,74028
2017-02-17T00:50:12.885Z,74030
2017-02-17T00:50:23.422Z,74034
2017-02-17T00:50:33.968Z,74033
2017-02-17T00:50:44.198Z,74037
2017-02-17T00:50:54.741Z,74040
2017-02-17T00:51:04.978Z,74043
2017-02-17T00:51:15.179Z,74032
2017-02-17T00:51:25.409Z,74037
2017-02-17T00:51:35.945Z,74033
2017-02-17T00:51:46.500Z,74035
2017-02-17T00:51:57.077Z,74038
2017-02-17T00:52:07.652Z,74035
2017-02-17T00:52:17.874Z,74031
2017-02-17T00:52:27.723Z,74027
2017-02-17T00:52:38.309Z,74026
2017-02-17T00:52:48.886Z,74028
2017-02-17T00:52:59.461Z,74031
2017-02-17T00:53:09.307Z,74039
2017-02-17T00:53:19.886Z,74034
2017-02-17T00:53:30.087Z,74030
2017-02-17T00:53:40.680Z,74025
2017-02-17T00:53:51.232Z,74031
2017-02-17T00:54:01.817Z,74025
2017-02-17T00:54:12.376Z,74028
2017-02-17T00:54:22.596Z,74025
2017-02-17T00:54:33.124Z,74022
2017-02-17T00:54:43.684Z,74019
2017-02-17T00:54:54.312Z,74019
2017-02-17T00:55:04.890Z,74023
2017-02-17T00:55:15.058Z,74029
2017-02-17T00:55:25.610Z,74025
2017-02-17T00:55:36.185Z,74025
2017-02-17T00:55:46.794Z,74022
2017-02-17T00:55:57.356Z,74026
2017-02-17T00:56:07.599Z,74028
2017-02-17T00:56:17.442Z,74025
2017-02-17T00:56:27.677Z,74025
2017-02-17T00:56:38.273Z,74020
2017-02-17T00:56:48.840Z,74014
2017-02-17T00:56:59.454Z,74005
2017-02-17T00:57:10.056Z,74016
2017-02-17T00:57:20.273Z,74027
2017-02-17T00:57:30.827Z,74026
2017-02-17T00:57:41.393Z,74034
2017-02-17T00:57:51.967Z,74028
2017-02-17T00:58:02.161Z,74024
2017-02-17T00:58:12.410Z,74028
2017-02-17T00:58:22.606Z,74032
2017-02-17T00:58:33.154Z,74024
2017-02-17T00:58:43.732Z,74026
2017-02-17T00:58:54.306Z,74027
2017-02-17T00:59:04.945Z,74030
2017-02-17T00:59:15.157Z,74031
2017-02-17T00:59:25.351Z,74022
2017-02-17T00:59:35.962Z,74023
2017-02-17T00:59:46.525Z,74018
2017-02-17T00:59:57.074Z,74013
2017-02-17T01:00:07.625Z,74011
2017-02-17T01:00:18.198Z,74015
2017-02-17T01:00:28.416Z,74016
2017-02-17T01:00:38.976Z,74006
2017-02-17T01:00:49.551Z,74014
2017-02-17T01:01:00.103Z,74018
2017-02-17T01:01:10.739Z,74017
2017-02-17T01:01:20.939Z,74022
2017-02-17T01:01:31.466Z,74018
2017-02-17T01:01:42.098Z,74020
2017-02-17T01:01:52.313Z,74026
2017-02-17T01:02:02.881Z,74022
2017-02-17T01:02:12.731Z,74017
2017-02-17T01:02:23.333Z,74019
2017-02-17T01:02:33.899Z,74016
2017-02-17T01:02:44.491Z,74017
2017-02-17T01:02:55.107Z,74020
2017-02-17T01:03:05.281Z,74023
2017-02-17T01:03:15.836Z,74017
2017-02-17T01:03:26.423Z,74021
2017-02-17T01:03:36.977Z,74007
2017-02-17T01:03:47.541Z,74008
2017-02-17T01:03:58.136Z,73997
2017-02-17T01:04:08.380Z,74009
2017-02-17T01:04:18.934Z,74016
2017-02-17T01:04:29.466Z,74020
2017-02-17T01:04:40.069Z,74022
2017-02-17T01:04:50.678Z,74026
2017-02-17T01:05:01.294Z,74028
2017-02-17T01:05:11.502Z,74027
2017-02-17T01:05:21.730Z,74025
2017-02-17T01:05:32.336Z,74022
2017-02-17T01:05:42.883Z,74015
2017-02-17T01:05:53.412Z,74027
2017-02-17T01:06:03.965Z,74031
2017-02-17T01:06:13.854Z,74033
2017-02-17T01:06:24.056Z,74025
2017-02-17T01:06:34.638Z,74018
2017-02-17T01:06:45.217Z,74021
2017-02-17T01:06:55.815Z,74021
2017-02-17T01:07:06.399Z,74024
2017-02-17T01:07:16.579Z,74015
2017-02-17T01:07:27.136Z,73991
2017-02-17T01:07:37.644Z,74012
2017-02-17T01:07:48.266Z,74027
2017-02-17T01:07:58.815Z,74023
2017-02-17T01:08:09.373Z,74041
2017-02-17T01:08:19.570Z,74035
2017-02-17T01:08:30.132Z,74033
2017-02-17T01:08:40.748Z,74036
2017-02-17T01:08:51.336Z,74015
2017-02-17T01:09:01.888Z,74009
2017-02-17T01:09:12.111Z,74003
2017-02-17T01:09:22.704Z,73991
2017-02-17T01:09:33.252Z,73983
2017-02-17T01:09:43.858Z,74004
2017-02-17T01:09:54.431Z,73999
2017-02-17T01:10:05.001Z,73976
2017-02-17T01:10:14.855Z,74007
2017-02-17T01:10:25.440Z,74012
2017-02-17T01:10:35.974Z,74018
2017-02-17T01:10:46.609Z,74012
2017-02-17T01:10:57.212Z,74023
2017-02-17T01:11:07.794Z,74022
2017-02-17T01:11:17.662Z,74014
2017-02-17T01:11:27.872Z,74015
2017-02-17T01:11:38.426Z,74023
2017-02-17T01:11:48.987Z,74017
2017-02-17T01:11:59.543Z,74005
2017-02-17T01:12:10.091Z,74027
2017-02-17T01:12:20.281Z,74015
2017-02-17T01:12:30.496Z,73999
2017-02-17T01:12:40.702Z,74006
2017-02-17T01:12:51.327Z,74011
2017-02-17T01:13:01.852Z,74010
2017-02-17T01:13:12.411Z,74006
2017-02-17T01:13:23.011Z,73999
2017-02-17T01:13:33.570Z,74003
2017-02-17T01:13:44.173Z,74000
2017-02-17T01:13:54.736Z,73988
2017-02-17T01:14:05.284Z,73998
2017-02-17T01:14:15.128Z,74011
2017-02-17T01:14:25.360Z,74010
2017-02-17T01:14:35.549Z,74011
2017-02-17T01:14:46.153Z,74015
2017-02-17T01:14:56.685Z,74010
2017-02-17T01:15:07.220Z,74005
2017-02-17T01:15:17.822Z,74011
2017-02-17T01:15:28.058Z,74013
2017-02-17T01:15:38.645Z,74003
2017-02-17T01:15:49.219Z,74004
2017-02-17T01:15:59.788Z,73994
2017-02-17T01:16:10.020Z,74001
2017-02-17T01:16:20.559Z,74012
2017-02-17T01:16:31.126Z,74017
2017-02-17T01:16:41.673Z,74007
2017-02-17T01:16:52.228Z,74005
2017-02-17T01:17:02.763Z,74007
2017-02-17T01:17:13.318Z,74007
2017-02-17T01:17:23.887Z,74011
2017-02-17T01:17:34.100Z,74012
2017-02-17T01:17:44.662Z,74006
2017-02-17T01:17:55.248Z,74001
2017-02-17T01:18:05.817Z,74003
2017-02-17T01:18:16.023Z,74014
2017-02-17T01:18:26.603Z,74006
2017-02-17T01:18:37.162Z,73996
2017-02-17T01:18:47.755Z,73996
2017-02-17T01:18:58.321Z,74002
2017-02-17T01:19:08.527Z,73999
2017-02-17T01:19:19.091Z,73996
2017-02-17T01:19:29.634Z,74005
2017-02-17T01:19:40.254Z,74011
2017-02-17T01:19:50.822Z,74018
2017-02-17T01:20:01.420Z,74013
2017-02-17T01:20:11.665Z,74026
2017-02-17T01:20:21.509Z,74034
2017-02-17T01:20:32.042Z,74015
2017-02-17T01:20:42.609Z,74012
2017-02-17T01:20:53.179Z,73993
2017-02-17T01:21:03.774Z,73989
2017-02-17T01:21:14.333Z,74007
2017-02-17T01:21:24.912Z,74011
2017-02-17T01:21:35.462Z,74012
2017-02-17T01:21:46.043Z,74013
2017-02-17T01:21:56.626Z,74031
2017-02-17T01:22:07.194Z,74027
2017-02-17T01:22:17.398Z,74013
2017-02-17T01:22:27.226Z,74025
2017-02-17T01:22:37.770Z,74008
2017-02-17T01:22:48.359Z,73969
2017-02-17T01:22:58.902Z,73950
2017-02-17T01:23:09.443Z,73965
2017-02-17T01:23:20.004Z,73985
2017-02-17T01:23:30.527Z,73979
2017-02-17T01:23:40.707Z,73982
2017-02-17T01:23:51.298Z,73984
2017-02-17T01:24:01.872Z,73986
2017-02-17T01:24:11.721Z,73980
2017-02-17T01:24:21.538Z,73986
2017-02-17T01:24:31.738Z,73994
2017-02-17T01:24:42.334Z,73995
2017-02-17T01:24:52.511Z,73990
2017-02-17T01:25:02.695Z,73988
2017-02-17T01:25:13.284Z,73990
2017-02-17T01:25:23.858Z,73997
2017-02-17T01:25:34.053Z,74002
2017-02-17T01:25:44.251Z,74007
2017-02-17T01:25:54.843Z,73993
2017-02-17T01:26:05.427Z,73998
2017-02-17T01:26:15.238Z,74001
2017-02-17T01:26:25.845Z,74005
2017-02-17T01:26:36.426Z,74010
2017-02-17T01:26:47.001Z,74007
2017-02-17T01:26:57.570Z,74009
2017-02-17T01:27:08.123Z,74012
2017-02-17T01:27:18.703Z,74011
2017-02-17T01:27:29.240Z,74010
2017-02-17T01:27:39.835Z,74006
2017-02-17T01:27:50.405Z,73999
2017-02-17T01:28:00.978Z,74003
2017-02-17T01:28:11.549Z,74000
2017-02-17T01:28:22.138Z,73999
2017-02-17T01:28:32.748Z,74002
2017-02-17T01:28:43.350Z,74003
2017-02-17T01:28:53.929Z,74017
2017-02-17T01:29:04.503Z,74014
2017-02-17T01:29:15.094Z,73999
2017-02-17T01:29:25.655Z,74007
2017-02-17T01:29:36.218Z,74010
2017-02-17T01:29:46.818Z,74007
2017-02-17T01:29:57.387Z,74012
2017-02-17T01:30:07.947Z,74010
2017-02-17T01:30:18.571Z,74009
2017-02-17T01:30:29.157Z,74007
2017-02-17T01:30:39.367Z,74011
2017-02-17T01:30:49.949Z,74002
2017-02-17T01:31:00.518Z,74002
2017-02-17T01:31:10.736Z,73998
2017-02-17T01:31:20.938Z,74004
2017-02-17T01:31:31.523Z,74009
2017-02-17T01:31:42.112Z,74007
2017-02-17T01:31:52.717Z,74006
2017-02-17T01:32:02.928Z,74008
2017-02-17T01:32:13.084Z,74010
2017-02-17T01:32:23.276Z,73997
2017-02-17T01:32:33.833Z,73984
2017-02-17T01:32:44.428Z,73995
2017-02-17T01:32:54.989Z,73998
2017-02-17T01:33:05.545Z,74002
2017-02-17T01:33:16.107Z,74013
2017-02-17T01:33:26.671Z,74014
2017-02-17T01:33:37.190Z,74016
2017-02-17T01:33:47.740Z,74004
2017-02-17T01:33:58.298Z,74005
2017-02-17T01:34:08.884Z,73999
2017-02-17T01:34:18.746Z,73993
2017-02-17T01:34:29.352Z,73990
2017-02-17T01:34:39.903Z,73992
2017-02-17T01:34:50.175Z,73991
2017-02-17T01:35:00.408Z,73989
2017-02-17T01:35:10.570Z,73994
2017-02-17T01:35:21.138Z,73999
2017-02-17T01:35:31.691Z,73998
2017-02-17T01:35:41.856Z,74008
2017-02-17T01:35:52.431Z,74009
2017-02-17T01:36:03.023Z,73999
2017-02-17T01:36:13.589Z,73996
2017-02-17T01:36:24.150Z,73997
2017-02-17T01:36:34.733Z,73999
2017-02-17T01:36:44.927Z,74006
2017-02-17T01:36:55.511Z,73988
2017-02-17T01:37:06.122Z,73985
2017-02-17T01:37:16.292Z,73992
2017-02-17T01:37:26.852Z,73991
2017-02-17T01:37:37.062Z,73995
2017-02-17T01:37:47.640Z,73996
2017-02-17T01:37:57.833Z,73988
2017-02-17T01:38:08.379Z,73987
2017-02-17T01:38:18.943Z,73989
2017-02-17T01:38:29.500Z,73991
2017-02-17T01:38:40.052Z,73993
2017-02-17T01:38:50.635Z,73997
2017-02-17T01:39:01.196Z,73991
2017-02-17T01:39:11.749Z,73982
2017-02-17T01:39:21.946Z,73988
2017-02-17T01:39:32.491Z,73986
2017-02-17T01:39:43.066Z,73989
2017-02-17T01:39:53.621Z,73994
2017-02-17T01:40:04.218Z,73995
2017-02-17T01:40:14.785Z,73993
2017-02-17T01:40:25.348Z,73992
2017-02-17T01:40:35.499Z,73974
2017-02-17T01:40:46.077Z,73963
2017-02-17T01:40:56.652Z,73978
2017-02-17T01:41:07.277Z,73992
2017-02-17T01:41:17.826Z,73994
2017-02-17T01:41:28.395Z,73986
2017-02-17T01:41:38.977Z,73981
2017-02-17T01:41:49.195Z,73979
2017-02-17T01:41:59.743Z,73976
2017-02-17T01:42:10.326Z,73981
2017-02-17T01:42:20.483Z,73993
2017-02-17T01:42:31.064Z,73996
2017-02-17T01:42:41.638Z,73990
2017-02-17T01:42:52.200Z,73988
2017-02-17T01:43:02.799Z,73985
2017-02-17T01:43:13.004Z,73994
2017-02-17T01:43:22.828Z,74000
2017-02-17T01:43:33.367Z,73994
2017-02-17T01:43:43.937Z,73991
2017-02-17T01:43:54.483Z,73990
2017-02-17T01:44:05.052Z,73994
2017-02-17T01:44:15.224Z,73980
2017-02-17T01:44:25.454Z,73974
2017-02-17T01:44:35.981Z,73970
2017-02-17T01:44:46.612Z,73976
2017-02-17T01:44:57.251Z,73979
2017-02-17T01:45:07.829Z,73983
2017-02-17T01:45:18.072Z,73987
2017-02-17T01:45:28.627Z,73982
2017-02-17T01:45:39.218Z,73979
2017-02-17T01:45:49.782Z,73974
2017-02-17T01:46:00.358Z,73972
2017-02-17T01:46:10.940Z,73982
2017-02-17T01:46:21.531Z,73989
2017-02-17T01:46:32.078Z,73991
2017-02-17T01:46:42.603Z,73990
2017-02-17T01:46:53.220Z,73989
2017-02-17T01:47:03.411Z,73984
2017-02-17T01:47:13.968Z,73985
2017-02-17T01:47:24.190Z,73974
2017-02-17T01:47:34.385Z,73981
2017-02-17T01:47:44.938Z,73986
2017-02-17T01:47:55.158Z,73989
2017-02-17T01:48:05.358Z,73988
2017-02-17T01:48:15.523Z,73990
2017-02-17T01:48:26.086Z,73997
2017-02-17T01:48:36.630Z,73996
2017-02-17T01:48:47.212Z,73994
2017-02-17T01:48:57.785Z,73996
2017-02-17T01:49:08.373Z,73996
2017-02-17T01:49:18.962Z,73997
2017-02-17T01:49:29.547Z,73997
2017-02-17T01:49:40.095Z,73998
2017-02-17T01:49:50.698Z,73986
2017-02-17T01:50:01.279Z,73984
2017-02-17T01:50:11.885Z,73979
2017-02-17T01:50:22.106Z,73979
2017-02-17T01:50:32.736Z,73979
2017-02-17T01:50:42.579Z,73984
2017-02-17T01:50:52.771Z,73984
2017-02-17T01:51:02.948Z,73974
2017-02-17T01:51:13.125Z,73973
2017-02-17T01:51:23.324Z,73964
2017-02-17T01:51:33.515Z,73968
2017-02-17T01:51:44.100Z,73971
2017-02-17T01:51:54.653Z,73979
2017-02-17T01:52:05.232Z,73977
2017-02-17T01:52:15.447Z,73974
2017-02-17T01:52:25.671Z,73968
2017-02-17T01:52:36.192Z,73974
2017-02-17T01:52:46.777Z,73974
2017-02-17T01:52:57.325Z,73966
2017-02-17T01:53:07.918Z,73982
2017-02-17T01:53:18.487Z,73983
2017-02-17T01:53:29.051Z,73972
2017-02-17T01:53:39.583Z,73966
2017-02-17T01:53:50.175Z,73971
2017-02-17T01:54:00.377Z,73982
2017-02-17T01:54:10.563Z,73982
2017-02-17T01:54:20.770Z,73984
2017-02-17T01:54:31.023Z,73984
2017-02-17T01:54:41.598Z,73981
2017-02-17T01:54:52.187Z,73969
2017-02-17T01:55:02.769Z,73978
2017-02-17T01:55:12.933Z,73972
2017-02-17T01:55:23.511Z,73966
2017-02-17T01:55:34.099Z,73963
2017-02-17T01:55:44.743Z,73968
2017-02-17T01:55:54.941Z,73976
2017-02-17T01:56:05.490Z,73979
2017-02-17T01:56:16.129Z,73978
2017-02-17T01:56:26.752Z,73976
2017-02-17T01:56:37.287Z,73981
2017-02-17T01:56:47.832Z,73978
2017-02-17T01:56:58.399Z,73981
2017-02-17T01:57:08.957Z,73978
2017-02-17T01:57:19.187Z,73983
2017-02-17T01:57:29.843Z,73984
2017-02-17T01:57:40.429Z,73976
2017-02-17T01:57:50.994Z,73978
2017-02-17T01:58:01.174Z,73979
2017-02-17T01:58:11.757Z,73976
2017-02-17T01:58:21.956Z,73975
2017-02-17T01:58:32.564Z,73973
2017-02-17T01:58:43.190Z,73974
2017-02-17T01:58:53.774Z,73977
2017-02-17T01:59:04.344Z,73978
2017-02-17T01:59:14.901Z,73979
2017-02-17T01:59:25.450Z,73979
2017-02-17T01:59:35.638Z,73973
2017-02-17T01:59:46.237Z,73970
2017-02-17T01:59:56.824Z,73973
2017-02-17T02:00:06.648Z,73972
2017-02-17T02:00:17.216Z,73975
2017-02-17T02:00:27.778Z,73974
2017-02-17T02:00:38.360Z,73969
2017-02-17T02:00:48.939Z,73970
2017-02-17T02:00:59.113Z,73976
2017-02-17T02:01:09.316Z,73974
2017-02-17T02:01:19.105Z,73986
2017-02-17T02:01:29.690Z,73981
2017-02-17T02:01:40.243Z,73979
2017-02-17T02:01:50.810Z,73978
2017-02-17T02:02:01.353Z,73976
2017-02-17T02:02:11.890Z,73974
2017-02-17T02:02:22.455Z,73974
2017-02-17T02:02:33.024Z,73967
2017-02-17T02:02:43.613Z,73973
2017-02-17T02:02:54.183Z,73970
2017-02-17T02:03:04.715Z,73971
2017-02-17T02:03:15.286Z,73977
2017-02-17T02:03:25.475Z,73975
2017-02-17T02:03:36.051Z,73968
2017-02-17T02:03:46.641Z,73963
2017-02-17T02:03:57.238Z,73969
2017-02-17T02:04:07.791Z,73973
2017-02-17T02:04:18.000Z,73975
2017-02-17T02:04:28.593Z,73979
2017-02-17T02:04:38.786Z,73976
2017-02-17T02:04:49.347Z,73976
2017-02-17T02:04:59.891Z,73972
2017-02-17T02:05:10.501Z,73975
2017-02-17T02:05:21.015Z,73973
2017-02-17T02:05:31.553Z,73964
2017-02-17T02:05:42.110Z,73966
2017-02-17T02:05:52.664Z,73966
2017-02-17T02:06:02.844Z,73968
2017-02-17T02:06:12.679Z,73965
2017-02-17T02:06:22.855Z,73966
2017-02-17T02:06:33.403Z,73968
2017-02-17T02:06:43.909Z,73968
2017-02-17T02:06:54.119Z,73969
2017-02-17T02:07:04.655Z,73967
2017-02-17T02:07:14.518Z,73967
2017-02-17T02:07:24.720Z,73968
2017-02-17T02:07:35.303Z,73966
2017-02-17T02:07:45.501Z,73960
2017-02-17T02:07:56.065Z,73965
2017-02-17T02:08:06.610Z,73976
2017-02-17T02:08:17.193Z,73973
2017-02-17T02:08:27.371Z,73972
2017-02-17T02:08:37.966Z,73969
2017-02-17T02:08:48.515Z,73964
2017-02-17T02:08:59.094Z,73961
2017-02-17T02:09:09.663Z,73969
2017-02-17T02:09:19.865Z,73967
2017-02-17T02:09:30.469Z,73970
2017-02-17T02:09:41.110Z,73972
2017-02-17T02:09:51.683Z,73969
2017-02-17T02:10:02.248Z,73974
2017-02-17T02:10:12.789Z,73970
2017-02-17T02:10:23.324Z,73960
2017-02-17T02:10:33.847Z,73967
2017-02-17T02:10:44.460Z,73967
2017-02-17T02:10:55.031Z,73965
2017-02-17T02:11:05.580Z,73958
2017-02-17T02:11:15.436Z,73959
2017-02-17T02:11:26.025Z,73963
2017-02-17T02:11:36.598Z,73960
2017-02-17T02:11:47.149Z,73959
2017-02-17T02:11:57.720Z,73961
2017-02-17T02:12:07.904Z,73960
2017-02-17T02:12:18.146Z,73960
2017-02-17T02:12:28.733Z,73962
2017-02-17T02:12:39.318Z,73966
2017-02-17T02:12:49.904Z,73968
2017-02-17T02:13:00.471Z,73960
2017-02-17T02:13:10.659Z,73964
2017-02-17T02:13:20.835Z,73963
2017-02-17T02:13:31.451Z,73965
2017-02-17T02:13:42.038Z,73961
2017-02-17T02:13:52.606Z,73965
2017-02-17T02:14:03.188Z,73960
2017-02-17T02:14:13.383Z,73957
2017-02-17T02:14:23.196Z,73961
2017-02-17T02:14:33.764Z,73956